createdAt,value
2023-05-10T00:03:54.299Z,75736.34
2023-05-10T00:14:01.111Z,75750.53
2023-05-10T00:24:03.528Z,75758.63
2023-05-10T00:34:07.972Z,75762.66
2023-05-10T00:44:12.509Z,75770.75
2023-05-10T00:54:16.451Z,75780.88
2023-05-10T01:04:18.825Z,75772.78
2023-05-10T01:14:23.599Z,75780.88
2023-05-10T01:24:37.842Z,75795.03
2023-05-10T01:34:47.645Z,75797.06
2023-05-10T01:44:58.346Z,75807.19
2023-05-10T01:55:04.629Z,75805.16
2023-05-10T02:05:11.883Z,75807.19
2023-05-10T02:15:17.150Z,75821.34
2023-05-10T02:25:24.623Z,75831.47
2023-05-10T02:35:29.744Z,75843.63
2023-05-10T02:45:36.927Z,75855.75
2023-05-10T02:55:43.484Z,75867.91
2023-05-10T03:05:46.320Z,75859.81
2023-05-10T03:16:05.659Z,75831.47
2023-05-10T03:26:09.049Z,75799.09
2023-05-10T03:36:13.737Z,75762.66
2023-05-10T03:46:16.154Z,75710.03
2023-05-10T03:56:22.351Z,75669.56
2023-05-10T04:06:27.556Z,75645.28
2023-05-10T04:16:31.002Z,75594.69
2023-05-10T04:26:36.061Z,75594.69
2023-05-10T04:36:40.633Z,75527.91
2023-05-10T04:46:45.174Z,75475.28
2023-05-10T04:56:47.523Z,75394.34
2023-05-10T05:06:53.992Z,75345.78
2023-05-10T05:16:57.047Z,75305.31
2023-05-10T05:27:05.950Z,75254.72
2023-05-10T05:37:14.633Z,75179.84
2023-05-10T05:47:17.616Z,75121.16
2023-05-10T05:57:19.862Z,75086.75
2023-05-10T06:07:23.644Z,75030.09
2023-05-10T06:17:26.459Z,74993.69
2023-05-10T06:27:31.018Z,74959.28
2023-05-10T06:37:35.708Z,74945.13
2023-05-10T06:47:39.165Z,74924.88
2023-05-10T06:57:44.179Z,74862.16
2023-05-10T07:07:53.811Z,74791.34
2023-05-10T07:17:58.701Z,74797.41
2023-05-10T07:28:03.646Z,74813.59
2023-05-10T07:38:08.451Z,74773.13
2023-05-10T07:48:14.119Z,74758.97
2023-05-10T07:58:18.350Z,74742.78
2023-05-10T08:08:27.308Z,74801.47
2023-05-10T08:18:33.029Z,74758.97
2023-05-10T08:28:38.290Z,74710.41
2023-05-10T08:38:41.392Z,74738.75
2023-05-10T08:48:44.764Z,74704.34
2023-05-10T08:58:52.723Z,74714.47
2023-05-10T09:08:54.886Z,74665.91
2023-05-10T09:18:57.462Z,74736.72
2023-05-10T09:29:01.046Z,74750.88
2023-05-10T09:39:03.634Z,74734.69
2023-05-10T09:49:11.549Z,74710.41
2023-05-10T09:59:14.291Z,74706.38
2023-05-10T10:09:19.892Z,74746.84
2023-05-10T10:19:22.871Z,74704.34
2023-05-10T10:29:53.109Z,74742.78
2023-05-10T10:39:58.044Z,74728.63
2023-05-10T10:50:05.286Z,74698.28
2023-05-10T11:00:34.816Z,74706.38
2023-05-10T11:10:40.636Z,74706.38
2023-05-10T11:20:48.022Z,74698.28
2023-05-10T11:30:57.529Z,74669.94
2023-05-10T11:40:59.809Z,74647.69
2023-05-10T11:51:06.626Z,74688.16
2023-05-10T12:01:12.610Z,74669.94
2023-05-10T12:11:16.752Z,74649.72
2023-05-10T12:21:24.528Z,74593.06
2023-05-10T12:31:29.856Z,74613.28
2023-05-10T12:41:36.016Z,74617.34
2023-05-10T12:51:38.373Z,74629.47
2023-05-10T13:01:45.164Z,74589.00
2023-05-10T13:11:50.599Z,74562.72
2023-05-10T13:21:55.614Z,74576.88
2023-05-10T13:32:02.075Z,74552.59
2023-05-10T13:42:05.134Z,74528.31
2023-05-10T13:52:11.360Z,74564.75
2023-05-10T14:02:15.573Z,74570.81
2023-05-10T14:12:23.313Z,74550.56
2023-05-10T14:22:29.343Z,74540.47
2023-05-10T14:32:35.284Z,74530.34
2023-05-10T14:42:42.779Z,74514.16
2023-05-10T14:52:48.006Z,74560.69
2023-05-10T15:02:50.647Z,74542.47
2023-05-10T15:12:57.158Z,74570.81
2023-05-10T15:23:00.214Z,74564.75
2023-05-10T15:33:03.092Z,74546.53
2023-05-10T15:43:08.646Z,74544.50
2023-05-10T15:53:11.365Z,74584.97
2023-05-10T16:03:16.087Z,74580.94
2023-05-10T16:13:18.621Z,74566.75
2023-05-10T16:23:21.111Z,74566.75
2023-05-10T16:33:25.153Z,74584.97
2023-05-10T16:43:31.294Z,74599.13
2023-05-10T16:53:36.534Z,74615.31
2023-05-10T17:03:44.414Z,74625.44
2023-05-10T17:13:48.087Z,74645.66
2023-05-10T17:23:51.096Z,74661.84
2023-05-10T17:33:58.617Z,74680.06
2023-05-10T17:44:02.497Z,74710.41
2023-05-10T17:54:16.468Z,74734.69
2023-05-10T18:04:19.991Z,74752.91
2023-05-10T18:14:39.820Z,74783.25
2023-05-10T18:24:47.323Z,74813.59
2023-05-10T18:34:55.877Z,74839.91
2023-05-10T18:45:01.493Z,74878.34
2023-05-10T18:55:09.820Z,74900.59
2023-05-10T19:05:15.988Z,74920.84
2023-05-10T19:15:22.024Z,74945.13
2023-05-10T19:25:29.998Z,74975.47
2023-05-10T19:35:32.183Z,74997.72
2023-05-10T19:45:37.356Z,74993.69
2023-05-10T19:55:39.726Z,75026.06
2023-05-10T20:05:46.782Z,75066.53
2023-05-10T20:16:01.079Z,75092.84
2023-05-10T20:26:06.575Z,75121.16
2023-05-10T20:36:09.975Z,75159.59
2023-05-10T20:46:12.456Z,75187.94
2023-05-10T20:56:16.974Z,75220.31
2023-05-10T21:06:21.807Z,75232.47
2023-05-10T21:16:23.987Z,75268.88
2023-05-10T21:26:26.131Z,75289.13
2023-05-10T21:36:30.856Z,75307.31
2023-05-10T21:46:37.525Z,75327.56
2023-05-10T21:56:39.934Z,75333.63
2023-05-10T22:06:42.295Z,75355.91
2023-05-10T22:16:47.161Z,75368.03
2023-05-10T22:26:57.003Z,75388.28
2023-05-10T22:37:00.342Z,75404.47
2023-05-10T22:47:02.915Z,75422.69
2023-05-10T22:57:07.528Z,75434.81
2023-05-10T23:07:12.488Z,75446.97
2023-05-10T23:17:17.030Z,75457.06
2023-05-10T23:27:19.152Z,75467.19
2023-05-10T23:37:23.622Z,75479.34
2023-05-10T23:47:25.760Z,75487.44
2023-05-10T23:57:30.038Z,75503.63
